sensor_id;sensor_type;location;lat;lon;timestamp;P1;durP1;ratioP1;P2;durP2;ratioP2
24401;SDS011;12539;48.808;11.292;2022-11-15T00:01:37;18.27;;;12.15;;
24401;SDS011;12539;48.808;11.292;2022-11-15T00:04:03;16.33;;;12.70;;
24401;SDS011;12539;48.808;11.292;2022-11-15T00:06:29;16.25;;;11.75;;
24401;SDS011;12539;48.808;11.292;2022-11-15T00:08:57;20.77;;;14.32;;
24401;SDS011;12539;48.808;11.292;2022-11-15T00:11:23;24.45;;;15.73;;
24401;SDS011;12539;48.808;11.292;2022-11-15T00:13:48;15.75;;;11.13;;
24401;SDS011;12539;48.808;11.292;2022-11-15T00:16:14;15.35;;;12.27;;
24401;SDS011;12539;48.808;11.292;2022-11-15T00:18:40;16.63;;;12.48;;
24401;SDS011;12539;48.808;11.292;2022-11-15T00:21:14;15.98;;;12.27;;
24401;SDS011;12539;48.808;11.292;2022-11-15T00:23:41;16.88;;;12.85;;
24401;SDS011;12539;48.808;11.292;2022-11-15T00:26:07;14.45;;;11.82;;
24401;SDS011;12539;48.808;11.292;2022-11-15T00:28:36;17.35;;;11.85;;
24401;SDS011;12539;48.808;11.292;2022-11-15T00:31:02;22.42;;;15.20;;
24401;SDS011;12539;48.808;11.292;2022-11-15T00:33:31;13.32;;;10.02;;
24401;SDS011;12539;48.808;11.292;2022-11-15T00:36:04;13.90;;;11.10;;
24401;SDS011;12539;48.808;11.292;2022-11-15T00:38:32;21.15;;;13.68;;
24401;SDS011;12539;48.808;11.292;2022-11-15T00:41:00;16.60;;;11.45;;
24401;SDS011;12539;48.808;11.292;2022-11-15T00:43:27;14.82;;;11.50;;
24401;SDS011;12539;48.808;11.292;2022-11-15T00:45:53;19.40;;;11.32;;
24401;SDS011;12539;48.808;11.292;2022-11-15T00:48:19;12.95;;;10.73;;
24401;SDS011;12539;48.808;11.292;2022-11-15T00:50:44;18.15;;;11.32;;
24401;SDS011;12539;48.808;11.292;2022-11-15T00:53:10;14.23;;;11.57;;
24401;SDS011;12539;48.808;11.292;2022-11-15T00:55:36;15.38;;;10.70;;
24401;SDS011;12539;48.808;11.292;2022-11-15T00:58:02;16.73;;;11.48;;
24401;SDS011;12539;48.808;11.292;2022-11-15T01:00:27;13.02;;;9.80;;
24401;SDS011;12539;48.808;11.292;2022-11-15T01:02:53;15.55;;;10.45;;
24401;SDS011;12539;48.808;11.292;2022-11-15T01:05:19;17.55;;;11.13;;
24401;SDS011;12539;48.808;11.292;2022-11-15T01:07:45;18.65;;;12.48;;
24401;SDS011;12539;48.808;11.292;2022-11-15T01:10:10;12.77;;;9.93;;
24401;SDS011;12539;48.808;11.292;2022-11-15T01:12:36;15.32;;;10.63;;
24401;SDS011;12539;48.808;11.292;2022-11-15T01:15:02;15.35;;;11.27;;
24401;SDS011;12539;48.808;11.292;2022-11-15T01:17:30;13.70;;;9.68;;
24401;SDS011;12539;48.808;11.292;2022-11-15T01:19:56;15.50;;;10.93;;
24401;SDS011;12539;48.808;11.292;2022-11-15T01:22:21;14.90;;;11.15;;
24401;SDS011;12539;48.808;11.292;2022-11-15T01:24:49;13.65;;;10.60;;
24401;SDS011;12539;48.808;11.292;2022-11-15T01:27:15;14.15;;;10.57;;
24401;SDS011;12539;48.808;11.292;2022-11-15T01:29:40;15.45;;;11.23;;
24401;SDS011;12539;48.808;11.292;2022-11-15T01:32:07;12.50;;;9.60;;
24401;SDS011;12539;48.808;11.292;2022-11-15T01:34:33;15.50;;;11.63;;
24401;SDS011;12539;48.808;11.292;2022-11-15T01:36:58;12.48;;;10.10;;
24401;SDS011;12539;48.808;11.292;2022-11-15T01:39:24;14.07;;;10.70;;
24401;SDS011;12539;48.808;11.292;2022-11-15T01:41:51;13.25;;;10.45;;
24401;SDS011;12539;48.808;11.292;2022-11-15T01:50:08;13.10;;;10.23;;
24401;SDS011;12539;48.808;11.292;2022-11-15T01:52:37;12.50;;;10.05;;
24401;SDS011;12539;48.808;11.292;2022-11-15T01:57:35;14.18;;;10.95;;
24401;SDS011;12539;48.808;11.292;2022-11-15T02:00:03;12.38;;;9.00;;
24401;SDS011;12539;48.808;11.292;2022-11-15T02:02:29;11.77;;;9.15;;
24401;SDS011;12539;48.808;11.292;2022-11-15T02:04:56;11.35;;;8.15;;
24401;SDS011;12539;48.808;11.292;2022-11-15T02:07:21;19.33;;;11.38;;
24401;SDS011;12539;48.808;11.292;2022-11-15T02:09:47;14.38;;;9.20;;
24401;SDS011;12539;48.808;11.292;2022-11-15T02:12:15;13.05;;;9.57;;
24401;SDS011;12539;48.808;11.292;2022-11-15T02:14:44;16.13;;;10.40;;
24401;SDS011;12539;48.808;11.292;2022-11-15T02:30:38;11.88;;;9.38;;
24401;SDS011;12539;48.808;11.292;2022-11-15T02:33:32;13.25;;;10.00;;
24401;SDS011;12539;48.808;11.292;2022-11-15T02:36:19;12.25;;;8.65;;
24401;SDS011;12539;48.808;11.292;2022-11-15T02:41:31;13.45;;;9.40;;
24401;SDS011;12539;48.808;11.292;2022-11-15T02:46:41;15.30;;;9.93;;
24401;SDS011;12539;48.808;11.292;2022-11-15T02:49:29;13.07;;;9.70;;
24401;SDS011;12539;48.808;11.292;2022-11-15T02:51:58;15.20;;;10.07;;
24401;SDS011;12539;48.808;11.292;2022-11-15T02:54:25;13.02;;;9.23;;
24401;SDS011;12539;48.808;11.292;2022-11-15T02:56:54;14.20;;;10.02;;
24401;SDS011;12539;48.808;11.292;2022-11-15T02:59:51;14.18;;;9.40;;
24401;SDS011;12539;48.808;11.292;2022-11-15T03:10:54;13.95;;;9.73;;
24401;SDS011;12539;48.808;11.292;2022-11-15T03:13:27;15.65;;;10.00;;
24401;SDS011;12539;48.808;11.292;2022-11-15T03:16:09;12.77;;;9.23;;
24401;SDS011;12539;48.808;11.292;2022-11-15T03:18:57;10.68;;;8.18;;
24401;SDS011;12539;48.808;11.292;2022-11-15T03:21:28;15.38;;;10.50;;
24401;SDS011;12539;48.808;11.292;2022-11-15T03:23:56;14.13;;;9.93;;
24401;SDS011;12539;48.808;11.292;2022-11-15T03:26:26;15.10;;;10.45;;
24401;SDS011;12539;48.808;11.292;2022-11-15T03:28:58;14.52;;;10.70;;
24401;SDS011;12539;48.808;11.292;2022-11-15T03:31:31;13.75;;;10.40;;
24401;SDS011;12539;48.808;11.292;2022-11-15T03:34:14;13.27;;;9.70;;
24401;SDS011;12539;48.808;11.292;2022-11-15T03:36:45;19.55;;;13.45;;
24401;SDS011;12539;48.808;11.292;2022-11-15T03:39:12;15.95;;;10.95;;
24401;SDS011;12539;48.808;11.292;2022-11-15T03:47:27;19.35;;;12.48;;
24401;SDS011;12539;48.808;11.292;2022-11-15T03:50:02;18.90;;;14.48;;
24401;SDS011;12539;48.808;11.292;2022-11-15T03:52:33;13.75;;;10.02;;
24401;SDS011;12539;48.808;11.292;2022-11-15T03:55:00;17.77;;;13.50;;
24401;SDS011;12539;48.808;11.292;2022-11-15T03:57:27;11.52;;;8.60;;
24401;SDS011;12539;48.808;11.292;2022-11-15T03:59:53;10.45;;;8.60;;
24401;SDS011;12539;48.808;11.292;2022-11-15T04:02:19;10.80;;;7.72;;
24401;SDS011;12539;48.808;11.292;2022-11-15T04:04:45;12.02;;;9.13;;
24401;SDS011;12539;48.808;11.292;2022-11-15T04:07:10;9.50;;;7.60;;
24401;SDS011;12539;48.808;11.292;2022-11-15T04:09:36;8.85;;;7.07;;
24401;SDS011;12539;48.808;11.292;2022-11-15T04:12:22;10.30;;;7.63;;
24401;SDS011;12539;48.808;11.292;2022-11-15T04:17:45;11.23;;;8.52;;
24401;SDS011;12539;48.808;11.292;2022-11-15T04:23:03;10.35;;;7.53;;
24401;SDS011;12539;48.808;11.292;2022-11-15T04:28:16;12.35;;;8.55;;
24401;SDS011;12539;48.808;11.292;2022-11-15T04:30:42;13.05;;;9.27;;
24401;SDS011;12539;48.808;11.292;2022-11-15T04:33:08;12.77;;;9.32;;
24401;SDS011;12539;48.808;11.292;2022-11-15T04:35:34;14.30;;;9.73;;
24401;SDS011;12539;48.808;11.292;2022-11-15T04:38:00;14.27;;;10.30;;
24401;SDS011;12539;48.808;11.292;2022-11-15T04:40:27;11.93;;;8.52;;
24401;SDS011;12539;48.808;11.292;2022-11-15T04:42:52;12.73;;;8.77;;
24401;SDS011;12539;48.808;11.292;2022-11-15T04:45:18;10.82;;;7.53;;
24401;SDS011;12539;48.808;11.292;2022-11-15T04:47:44;11.80;;;8.45;;
24401;SDS011;12539;48.808;11.292;2022-11-15T04:50:11;13.50;;;9.65;;
24401;SDS011;12539;48.808;11.292;2022-11-15T04:52:59;14.95;;;9.40;;
24401;SDS011;12539;48.808;11.292;2022-11-15T04:55:24;12.82;;;9.40;;
24401;SDS011;12539;48.808;11.292;2022-11-15T04:57:56;10.35;;;7.38;;
24401;SDS011;12539;48.808;11.292;2022-11-15T05:00:26;9.32;;;7.57;;
24401;SDS011;12539;48.808;11.292;2022-11-15T05:02:53;12.55;;;8.38;;
24401;SDS011;12539;48.808;11.292;2022-11-15T05:05:37;10.50;;;7.75;;
24401;SDS011;12539;48.808;11.292;2022-11-15T05:08:03;13.80;;;9.05;;
24401;SDS011;12539;48.808;11.292;2022-11-15T05:10:29;12.82;;;9.05;;
24401;SDS011;12539;48.808;11.292;2022-11-15T05:12:55;8.85;;;6.53;;
24401;SDS011;12539;48.808;11.292;2022-11-15T05:15:20;12.40;;;9.30;;
24401;SDS011;12539;48.808;11.292;2022-11-15T05:17:46;11.10;;;8.07;;
24401;SDS011;12539;48.808;11.292;2022-11-15T05:20:12;16.88;;;11.00;;
24401;SDS011;12539;48.808;11.292;2022-11-15T05:22:38;11.40;;;7.43;;
24401;SDS011;12539;48.808;11.292;2022-11-15T05:25:04;53.00;;;27.30;;
24401;SDS011;12539;48.808;11.292;2022-11-15T05:27:30;15.57;;;10.18;;
24401;SDS011;12539;48.808;11.292;2022-11-15T05:29:56;34.67;;;18.33;;
24401;SDS011;12539;48.808;11.292;2022-11-15T05:32:22;12.35;;;8.20;;
24401;SDS011;12539;48.808;11.292;2022-11-15T05:34:48;16.77;;;10.38;;
24401;SDS011;12539;48.808;11.292;2022-11-15T05:37:17;14.82;;;10.55;;
24401;SDS011;12539;48.808;11.292;2022-11-15T05:39:43;12.98;;;9.60;;
24401;SDS011;12539;48.808;11.292;2022-11-15T05:42:15;14.43;;;9.98;;
24401;SDS011;12539;48.808;11.292;2022-11-15T05:44:44;16.13;;;10.65;;
24401;SDS011;12539;48.808;11.292;2022-11-15T05:47:17;16.48;;;10.27;;
24401;SDS011;12539;48.808;11.292;2022-11-15T05:49:46;83.10;;;27.35;;
24401;SDS011;12539;48.808;11.292;2022-11-15T05:52:14;30.83;;;15.68;;
24401;SDS011;12539;48.808;11.292;2022-11-15T05:54:43;60.08;;;19.48;;
24401;SDS011;12539;48.808;11.292;2022-11-15T05:57:09;38.85;;;15.68;;
24401;SDS011;12539;48.808;11.292;2022-11-15T05:59:35;33.83;;;15.50;;
24401;SDS011;12539;48.808;11.292;2022-11-15T06:02:01;44.05;;;17.70;;
24401;SDS011;12539;48.808;11.292;2022-11-15T06:04:27;36.50;;;16.50;;
24401;SDS011;12539;48.808;11.292;2022-11-15T06:06:52;52.60;;;19.00;;
24401;SDS011;12539;48.808;11.292;2022-11-15T06:09:18;63.47;;;22.75;;
24401;SDS011;12539;48.808;11.292;2022-11-15T06:11:44;34.22;;;18.05;;
24401;SDS011;12539;48.808;11.292;2022-11-15T06:14:09;47.92;;;19.40;;
24401;SDS011;12539;48.808;11.292;2022-11-15T06:16:35;38.50;;;18.55;;
24401;SDS011;12539;48.808;11.292;2022-11-15T06:19:01;43.33;;;19.00;;
24401;SDS011;12539;48.808;11.292;2022-11-15T06:21:26;38.10;;;17.90;;
24401;SDS011;12539;48.808;11.292;2022-11-15T06:23:55;39.92;;;18.15;;
24401;SDS011;12539;48.808;11.292;2022-11-15T06:26:20;37.47;;;17.80;;
24401;SDS011;12539;48.808;11.292;2022-11-15T06:28:46;34.13;;;19.95;;
24401;SDS011;12539;48.808;11.292;2022-11-15T06:31:12;44.83;;;16.73;;
24401;SDS011;12539;48.808;11.292;2022-11-15T06:33:38;28.33;;;14.82;;
24401;SDS011;12539;48.808;11.292;2022-11-15T06:36:06;35.55;;;16.77;;
24401;SDS011;12539;48.808;11.292;2022-11-15T06:38:33;29.42;;;15.65;;
24401;SDS011;12539;48.808;11.292;2022-11-15T06:41:03;25.98;;;13.55;;
24401;SDS011;12539;48.808;11.292;2022-11-15T06:43:30;21.85;;;13.25;;
24401;SDS011;12539;48.808;11.292;2022-11-15T06:45:59;22.40;;;12.52;;
24401;SDS011;12539;48.808;11.292;2022-11-15T06:48:26;31.65;;;14.30;;
24401;SDS011;12539;48.808;11.292;2022-11-15T06:50:53;29.27;;;14.88;;
24401;SDS011;12539;48.808;11.292;2022-11-15T06:53:20;26.25;;;14.50;;
24401;SDS011;12539;48.808;11.292;2022-11-15T06:55:45;27.30;;;13.52;;
24401;SDS011;12539;48.808;11.292;2022-11-15T06:58:11;29.52;;;14.93;;
24401;SDS011;12539;48.808;11.292;2022-11-15T07:00:37;24.55;;;13.75;;
24401;SDS011;12539;48.808;11.292;2022-11-15T07:03:03;22.45;;;13.10;;
24401;SDS011;12539;48.808;11.292;2022-11-15T07:05:28;24.73;;;14.90;;
24401;SDS011;12539;48.808;11.292;2022-11-15T07:07:55;20.92;;;12.20;;
24401;SDS011;12539;48.808;11.292;2022-11-15T07:10:21;21.63;;;12.77;;
24401;SDS011;12539;48.808;11.292;2022-11-15T07:12:49;18.20;;;12.85;;
24401;SDS011;12539;48.808;11.292;2022-11-15T07:15:16;20.17;;;12.25;;
24401;SDS011;12539;48.808;11.292;2022-11-15T07:17:42;16.00;;;11.05;;
24401;SDS011;12539;48.808;11.292;2022-11-15T07:20:08;16.58;;;10.10;;
24401;SDS011;12539;48.808;11.292;2022-11-15T07:22:34;15.73;;;10.27;;
24401;SDS011;12539;48.808;11.292;2022-11-15T07:24:59;15.07;;;10.63;;
24401;SDS011;12539;48.808;11.292;2022-11-15T07:27:25;14.90;;;10.82;;
24401;SDS011;12539;48.808;11.292;2022-11-15T07:29:51;17.25;;;11.05;;
24401;SDS011;12539;48.808;11.292;2022-11-15T07:32:17;18.58;;;11.73;;
24401;SDS011;12539;48.808;11.292;2022-11-15T07:34:42;20.40;;;11.90;;
24401;SDS011;12539;48.808;11.292;2022-11-15T07:37:08;15.02;;;10.48;;
24401;SDS011;12539;48.808;11.292;2022-11-15T07:39:34;13.23;;;9.57;;
24401;SDS011;12539;48.808;11.292;2022-11-15T07:41:59;16.48;;;10.65;;
24401;SDS011;12539;48.808;11.292;2022-11-15T07:44:43;14.18;;;9.15;;
24401;SDS011;12539;48.808;11.292;2022-11-15T07:47:09;16.13;;;11.25;;
24401;SDS011;12539;48.808;11.292;2022-11-15T07:49:35;15.63;;;11.43;;
24401;SDS011;12539;48.808;11.292;2022-11-15T07:52:00;14.30;;;10.30;;
24401;SDS011;12539;48.808;11.292;2022-11-15T07:54:26;14.75;;;10.70;;
24401;SDS011;12539;48.808;11.292;2022-11-15T07:56:51;14.27;;;9.40;;
24401;SDS011;12539;48.808;11.292;2022-11-15T07:59:17;14.93;;;10.35;;
24401;SDS011;12539;48.808;11.292;2022-11-15T08:01:44;14.63;;;11.50;;
24401;SDS011;12539;48.808;11.292;2022-11-15T08:04:10;14.80;;;10.88;;
24401;SDS011;12539;48.808;11.292;2022-11-15T08:06:36;13.45;;;10.05;;
24401;SDS011;12539;48.808;11.292;2022-11-15T08:09:02;15.30;;;9.60;;
24401;SDS011;12539;48.808;11.292;2022-11-15T08:11:28;14.65;;;9.35;;
24401;SDS011;12539;48.808;11.292;2022-11-15T08:13:54;11.15;;;9.57;;
24401;SDS011;12539;48.808;11.292;2022-11-15T08:16:19;13.13;;;8.85;;
24401;SDS011;12539;48.808;11.292;2022-11-15T08:18:45;10.98;;;9.15;;
24401;SDS011;12539;48.808;11.292;2022-11-15T08:21:11;15.82;;;11.00;;
24401;SDS011;12539;48.808;11.292;2022-11-15T08:23:42;12.93;;;10.38;;
24401;SDS011;12539;48.808;11.292;2022-11-15T08:26:08;13.40;;;9.25;;
24401;SDS011;12539;48.808;11.292;2022-11-15T08:28:34;13.75;;;10.35;;
24401;SDS011;12539;48.808;11.292;2022-11-15T08:31:00;11.30;;;8.77;;
24401;SDS011;12539;48.808;11.292;2022-11-15T08:33:27;11.35;;;9.48;;
24401;SDS011;12539;48.808;11.292;2022-11-15T08:35:55;12.32;;;9.93;;
24401;SDS011;12539;48.808;11.292;2022-11-15T08:38:24;13.15;;;9.95;;
24401;SDS011;12539;48.808;11.292;2022-11-15T08:40:51;11.48;;;8.80;;
24401;SDS011;12539;48.808;11.292;2022-11-15T08:43:18;13.00;;;9.65;;
24401;SDS011;12539;48.808;11.292;2022-11-15T08:45:44;13.15;;;10.30;;
24401;SDS011;12539;48.808;11.292;2022-11-15T08:48:10;15.10;;;8.80;;
24401;SDS011;12539;48.808;11.292;2022-11-15T08:50:36;12.85;;;9.85;;
24401;SDS011;12539;48.808;11.292;2022-11-15T08:53:08;12.23;;;9.45;;
24401;SDS011;12539;48.808;11.292;2022-11-15T08:55:35;13.50;;;10.23;;
24401;SDS011;12539;48.808;11.292;2022-11-15T08:58:02;11.93;;;9.32;;
24401;SDS011;12539;48.808;11.292;2022-11-15T09:00:28;16.10;;;12.48;;
24401;SDS011;12539;48.808;11.292;2022-11-15T09:02:53;15.68;;;11.85;;
24401;SDS011;12539;48.808;11.292;2022-11-15T09:05:19;15.95;;;11.55;;
24401;SDS011;12539;48.808;11.292;2022-11-15T09:07:45;15.48;;;11.80;;
24401;SDS011;12539;48.808;11.292;2022-11-15T09:10:10;13.00;;;10.98;;
24401;SDS011;12539;48.808;11.292;2022-11-15T09:12:36;15.00;;;12.05;;
24401;SDS011;12539;48.808;11.292;2022-11-15T09:15:02;13.10;;;11.20;;
24401;SDS011;12539;48.808;11.292;2022-11-15T09:17:29;16.90;;;11.55;;
24401;SDS011;12539;48.808;11.292;2022-11-15T09:19:54;11.57;;;10.20;;
24401;SDS011;12539;48.808;11.292;2022-11-15T09:22:20;18.08;;;11.07;;
24401;SDS011;12539;48.808;11.292;2022-11-15T09:24:46;14.38;;;10.95;;
24401;SDS011;12539;48.808;11.292;2022-11-15T09:27:11;15.10;;;11.20;;
24401;SDS011;12539;48.808;11.292;2022-11-15T09:29:38;12.85;;;11.10;;
24401;SDS011;12539;48.808;11.292;2022-11-15T09:32:04;11.68;;;9.10;;
24401;SDS011;12539;48.808;11.292;2022-11-15T09:34:30;11.02;;;9.35;;
24401;SDS011;12539;48.808;11.292;2022-11-15T09:36:55;11.55;;;9.85;;
24401;SDS011;12539;48.808;11.292;2022-11-15T09:39:21;13.52;;;10.35;;
24401;SDS011;12539;48.808;11.292;2022-11-15T09:50:10;10.95;;;9.25;;
24401;SDS011;12539;48.808;11.292;2022-11-15T09:52:39;10.98;;;9.23;;
24401;SDS011;12539;48.808;11.292;2022-11-15T09:55:10;11.35;;;8.82;;
24401;SDS011;12539;48.808;11.292;2022-11-15T09:57:44;9.10;;;7.80;;
24401;SDS011;12539;48.808;11.292;2022-11-15T10:00:37;9.73;;;8.65;;
24401;SDS011;12539;48.808;11.292;2022-11-15T10:03:09;10.10;;;8.40;;
24401;SDS011;12539;48.808;11.292;2022-11-15T10:05:42;13.03;;;7.63;;
24401;SDS011;12539;48.808;11.292;2022-11-15T10:11:06;10.88;;;7.85;;
24401;SDS011;12539;48.808;11.292;2022-11-15T10:13:35;8.90;;;6.10;;
24401;SDS011;12539;48.808;11.292;2022-11-15T10:24:26;9.90;;;7.65;;
24401;SDS011;12539;48.808;11.292;2022-11-15T10:26:55;7.95;;;7.07;;
24401;SDS011;12539;48.808;11.292;2022-11-15T10:29:22;9.55;;;7.15;;
24401;SDS011;12539;48.808;11.292;2022-11-15T10:31:49;6.90;;;6.20;;
24401;SDS011;12539;48.808;11.292;2022-11-15T10:34:16;7.47;;;6.38;;
24401;SDS011;12539;48.808;11.292;2022-11-15T10:36:46;8.43;;;6.75;;
24401;SDS011;12539;48.808;11.292;2022-11-15T10:39:23;8.77;;;6.28;;
24401;SDS011;12539;48.808;11.292;2022-11-15T10:41:50;8.85;;;7.25;;
24401;SDS011;12539;48.808;11.292;2022-11-15T10:46:41;7.97;;;7.10;;
24401;SDS011;12539;48.808;11.292;2022-11-15T10:49:24;9.65;;;8.32;;
24401;SDS011;12539;48.808;11.292;2022-11-15T10:51:55;7.53;;;6.75;;
24401;SDS011;12539;48.808;11.292;2022-11-15T10:54:34;10.15;;;7.78;;
24401;SDS011;12539;48.808;11.292;2022-11-15T10:57:10;9.40;;;7.18;;
24401;SDS011;12539;48.808;11.292;2022-11-15T10:59:40;7.63;;;6.82;;
24401;SDS011;12539;48.808;11.292;2022-11-15T11:04:59;9.60;;;6.70;;
24401;SDS011;12539;48.808;11.292;2022-11-15T11:07:26;18.70;;;10.38;;
24401;SDS011;12539;48.808;11.292;2022-11-15T11:10:02;10.00;;;7.30;;
24401;SDS011;12539;48.808;11.292;2022-11-15T11:12:48;14.15;;;10.45;;
24401;SDS011;12539;48.808;11.292;2022-11-15T11:15:15;8.77;;;7.80;;
24401;SDS011;12539;48.808;11.292;2022-11-15T11:33:54;8.90;;;6.90;;
24401;SDS011;12539;48.808;11.292;2022-11-15T11:36:49;11.45;;;9.48;;
24401;SDS011;12539;48.808;11.292;2022-11-15T11:43:08;10.40;;;7.45;;
24401;SDS011;12539;48.808;11.292;2022-11-15T11:51:05;7.00;;;6.30;;
24401;SDS011;12539;48.808;11.292;2022-11-15T11:53:44;7.40;;;6.50;;
24401;SDS011;12539;48.808;11.292;2022-11-15T11:56:23;8.20;;;6.53;;
24401;SDS011;12539;48.808;11.292;2022-11-15T11:58:54;8.60;;;6.35;;
24401;SDS011;12539;48.808;11.292;2022-11-15T12:01:31;8.35;;;6.13;;
24401;SDS011;12539;48.808;11.292;2022-11-15T12:09:30;8.90;;;6.30;;
24401;SDS011;12539;48.808;11.292;2022-11-15T12:12:09;11.55;;;9.25;;
24401;SDS011;12539;48.808;11.292;2022-11-15T12:14:57;8.38;;;7.40;;
24401;SDS011;12539;48.808;11.292;2022-11-15T12:17:28;11.13;;;9.88;;
24401;SDS011;12539;48.808;11.292;2022-11-15T12:20:03;11.32;;;7.47;;
24401;SDS011;12539;48.808;11.292;2022-11-15T12:22:44;11.63;;;9.15;;
24401;SDS011;12539;48.808;11.292;2022-11-15T12:30:23;9.00;;;6.90;;
24401;SDS011;12539;48.808;11.292;2022-11-15T12:33:05;6.95;;;6.22;;
24401;SDS011;12539;48.808;11.292;2022-11-15T12:35:57;7.90;;;6.97;;
24401;SDS011;12539;48.808;11.292;2022-11-15T12:38:49;8.75;;;6.95;;
24401;SDS011;12539;48.808;11.292;2022-11-15T12:41:14;10.10;;;8.13;;
24401;SDS011;12539;48.808;11.292;2022-11-15T12:43:42;8.93;;;7.63;;
24401;SDS011;12539;48.808;11.292;2022-11-15T12:48:59;8.55;;;6.03;;
24401;SDS011;12539;48.808;11.292;2022-11-15T13:02:33;9.98;;;7.63;;
24401;SDS011;12539;48.808;11.292;2022-11-15T13:18:35;5.93;;;5.20;;
24401;SDS011;12539;48.808;11.292;2022-11-15T13:21:04;12.02;;;6.50;;
24401;SDS011;12539;48.808;11.292;2022-11-15T13:24:03;8.70;;;6.90;;
24401;SDS011;12539;48.808;11.292;2022-11-15T13:26:29;8.40;;;7.10;;
24401;SDS011;12539;48.808;11.292;2022-11-15T13:28:56;10.13;;;7.35;;
24401;SDS011;12539;48.808;11.292;2022-11-15T13:31:37;8.65;;;6.55;;
24401;SDS011;12539;48.808;11.292;2022-11-15T13:37:09;7.60;;;6.45;;
24401;SDS011;12539;48.808;11.292;2022-11-15T13:39:47;8.07;;;6.80;;
24401;SDS011;12539;48.808;11.292;2022-11-15T13:42:15;7.93;;;6.88;;
24401;SDS011;12539;48.808;11.292;2022-11-15T13:44:54;8.50;;;6.78;;
24401;SDS011;12539;48.808;11.292;2022-11-15T13:47:21;9.10;;;6.75;;
24401;SDS011;12539;48.808;11.292;2022-11-15T13:49:49;7.72;;;6.93;;
24401;SDS011;12539;48.808;11.292;2022-11-15T13:52:15;7.57;;;6.28;;
24401;SDS011;12539;48.808;11.292;2022-11-15T13:54:46;10.57;;;7.25;;
24401;SDS011;12539;48.808;11.292;2022-11-15T13:59:53;7.85;;;5.82;;
24401;SDS011;12539;48.808;11.292;2022-11-15T14:02:21;9.90;;;7.72;;
24401;SDS011;12539;48.808;11.292;2022-11-15T14:04:53;8.70;;;6.97;;
24401;SDS011;12539;48.808;11.292;2022-11-15T14:07:55;7.03;;;6.30;;
24401;SDS011;12539;48.808;11.292;2022-11-15T14:10:41;8.15;;;7.30;;
24401;SDS011;12539;48.808;11.292;2022-11-15T14:14:02;8.20;;;7.03;;
24401;SDS011;12539;48.808;11.292;2022-11-15T14:16:20;10.57;;;8.25;;
24401;SDS011;12539;48.808;11.292;2022-11-15T14:18:48;8.53;;;6.97;;
24401;SDS011;12539;48.808;11.292;2022-11-15T14:21:18;8.15;;;6.93;;
24401;SDS011;12539;48.808;11.292;2022-11-15T14:23:44;10.43;;;7.13;;
24401;SDS011;12539;48.808;11.292;2022-11-15T14:26:31;8.30;;;7.30;;
24401;SDS011;12539;48.808;11.292;2022-11-15T14:31:48;7.45;;;6.75;;
24401;SDS011;12539;48.808;11.292;2022-11-15T14:34:14;8.45;;;6.50;;
24401;SDS011;12539;48.808;11.292;2022-11-15T14:36:40;8.07;;;6.72;;
24401;SDS011;12539;48.808;11.292;2022-11-15T14:39:06;7.93;;;6.78;;
24401;SDS011;12539;48.808;11.292;2022-11-15T14:41:34;11.38;;;7.32;;
24401;SDS011;12539;48.808;11.292;2022-11-15T14:44:03;7.65;;;6.85;;
24401;SDS011;12539;48.808;11.292;2022-11-15T14:46:29;8.23;;;7.22;;
24401;SDS011;12539;48.808;11.292;2022-11-15T14:48:55;14.27;;;7.68;;
24401;SDS011;12539;48.808;11.292;2022-11-15T14:51:21;10.68;;;6.88;;
24401;SDS011;12539;48.808;11.292;2022-11-15T14:53:47;8.70;;;6.28;;
24401;SDS011;12539;48.808;11.292;2022-11-15T14:56:12;10.48;;;7.60;;
24401;SDS011;12539;48.808;11.292;2022-11-15T14:58:39;9.32;;;7.57;;
24401;SDS011;12539;48.808;11.292;2022-11-15T15:01:10;10.93;;;7.53;;
24401;SDS011;12539;48.808;11.292;2022-11-15T15:03:48;8.48;;;7.13;;
24401;SDS011;12539;48.808;11.292;2022-11-15T15:06:16;9.40;;;6.97;;
24401;SDS011;12539;48.808;11.292;2022-11-15T15:08:42;10.45;;;7.72;;
24401;SDS011;12539;48.808;11.292;2022-11-15T15:11:10;12.00;;;8.18;;
24401;SDS011;12539;48.808;11.292;2022-11-15T15:13:39;9.32;;;6.75;;
24401;SDS011;12539;48.808;11.292;2022-11-15T15:16:05;12.45;;;8.15;;
24401;SDS011;12539;48.808;11.292;2022-11-15T15:18:31;14.23;;;9.02;;
24401;SDS011;12539;48.808;11.292;2022-11-15T15:20:57;11.38;;;8.32;;
24401;SDS011;12539;48.808;11.292;2022-11-15T15:23:31;13.23;;;9.30;;
24401;SDS011;12539;48.808;11.292;2022-11-15T15:25:57;16.45;;;9.93;;
24401;SDS011;12539;48.808;11.292;2022-11-15T15:28:23;16.63;;;10.30;;
24401;SDS011;12539;48.808;11.292;2022-11-15T15:30:49;13.23;;;9.80;;
24401;SDS011;12539;48.808;11.292;2022-11-15T15:33:15;15.32;;;9.15;;
24401;SDS011;12539;48.808;11.292;2022-11-15T15:35:41;14.93;;;10.73;;
24401;SDS011;12539;48.808;11.292;2022-11-15T15:38:13;16.48;;;11.13;;
24401;SDS011;12539;48.808;11.292;2022-11-15T15:40:40;14.95;;;9.35;;
24401;SDS011;12539;48.808;11.292;2022-11-15T15:43:05;14.55;;;11.02;;
24401;SDS011;12539;48.808;11.292;2022-11-15T15:45:34;16.17;;;9.68;;
24401;SDS011;12539;48.808;11.292;2022-11-15T15:48:04;10.82;;;8.25;;
24401;SDS011;12539;48.808;11.292;2022-11-15T15:50:33;13.10;;;9.30;;
24401;SDS011;12539;48.808;11.292;2022-11-15T15:53:00;14.63;;;10.00;;
24401;SDS011;12539;48.808;11.292;2022-11-15T15:55:28;15.98;;;12.10;;
24401;SDS011;12539;48.808;11.292;2022-11-15T15:57:54;16.40;;;10.77;;
24401;SDS011;12539;48.808;11.292;2022-11-15T16:00:21;17.02;;;12.63;;
24401;SDS011;12539;48.808;11.292;2022-11-15T16:02:48;17.38;;;12.07;;
24401;SDS011;12539;48.808;11.292;2022-11-15T16:05:14;12.60;;;9.38;;
24401;SDS011;12539;48.808;11.292;2022-11-15T16:07:40;13.70;;;9.90;;
24401;SDS011;12539;48.808;11.292;2022-11-15T16:12:53;15.30;;;10.95;;
24401;SDS011;12539;48.808;11.292;2022-11-15T16:15:21;15.35;;;10.68;;
24401;SDS011;12539;48.808;11.292;2022-11-15T16:17:49;12.13;;;9.68;;
24401;SDS011;12539;48.808;11.292;2022-11-15T16:20:29;14.88;;;10.98;;
24401;SDS011;12539;48.808;11.292;2022-11-15T16:23:08;12.13;;;9.60;;
24401;SDS011;12539;48.808;11.292;2022-11-15T16:28:28;14.52;;;10.73;;
24401;SDS011;12539;48.808;11.292;2022-11-15T16:33:36;14.15;;;10.77;;
24401;SDS011;12539;48.808;11.292;2022-11-15T16:36:03;15.25;;;12.40;;
24401;SDS011;12539;48.808;11.292;2022-11-15T16:38:30;16.02;;;11.70;;
24401;SDS011;12539;48.808;11.292;2022-11-15T16:40:56;13.15;;;9.02;;
24401;SDS011;12539;48.808;11.292;2022-11-15T16:43:21;18.65;;;12.85;;
24401;SDS011;12539;48.808;11.292;2022-11-15T16:45:48;18.35;;;12.23;;
24401;SDS011;12539;48.808;11.292;2022-11-15T16:48:19;13.60;;;11.07;;
24401;SDS011;12539;48.808;11.292;2022-11-15T16:50:57;13.00;;;10.57;;
24401;SDS011;12539;48.808;11.292;2022-11-15T16:53:23;16.20;;;11.40;;
24401;SDS011;12539;48.808;11.292;2022-11-15T16:55:53;12.68;;;9.13;;
24401;SDS011;12539;48.808;11.292;2022-11-15T16:58:19;11.45;;;9.52;;
24401;SDS011;12539;48.808;11.292;2022-11-15T17:00:49;11.88;;;9.55;;
24401;SDS011;12539;48.808;11.292;2022-11-15T17:03:19;14.13;;;9.90;;
24401;SDS011;12539;48.808;11.292;2022-11-15T17:05:48;9.93;;;8.48;;